sensor_id;sensor_type;location;lat;lon;timestamp;P1;durP1;ratioP1;P2;durP2;ratioP2
55833;SDS011;41761;43.004;-0.066;2022-09-11T00:02:17;1.02;;;1.00;;
55833;SDS011;41761;43.004;-0.066;2022-09-11T00:04:43;1.98;;;1.25;;
55833;SDS011;41761;43.004;-0.066;2022-09-11T00:07:09;1.23;;;1.23;;
55833;SDS011;41761;43.004;-0.066;2022-09-11T00:09:35;1.90;;;1.40;;
55833;SDS011;41761;43.004;-0.066;2022-09-11T00:12:01;1.30;;;1.30;;
55833;SDS011;41761;43.004;-0.066;2022-09-11T00:14:27;1.02;;;1.00;;
55833;SDS011;41761;43.004;-0.066;2022-09-11T00:16:54;1.60;;;1.00;;
55833;SDS011;41761;43.004;-0.066;2022-09-11T00:19:20;0.90;;;0.90;;
55833;SDS011;41761;43.004;-0.066;2022-09-11T00:21:46;1.27;;;1.27;;
55833;SDS011;41761;43.004;-0.066;2022-09-11T00:24:14;1.40;;;1.40;;
55833;SDS011;41761;43.004;-0.066;2022-09-11T00:26:40;2.15;;;1.20;;
55833;SDS011;41761;43.004;-0.066;2022-09-11T00:29:07;1.40;;;1.30;;
55833;SDS011;41761;43.004;-0.066;2022-09-11T00:31:33;1.20;;;1.10;;
55833;SDS011;41761;43.004;-0.066;2022-09-11T00:33:59;1.20;;;1.20;;
55833;SDS011;41761;43.004;-0.066;2022-09-11T00:36:28;1.48;;;1.40;;
55833;SDS011;41761;43.004;-0.066;2022-09-11T00:38:55;1.30;;;1.17;;
55833;SDS011;41761;43.004;-0.066;2022-09-11T00:41:26;1.63;;;1.38;;
55833;SDS011;41761;43.004;-0.066;2022-09-11T00:44:00;1.70;;;1.33;;
55833;SDS011;41761;43.004;-0.066;2022-09-11T00:46:38;1.50;;;1.40;;
55833;SDS011;41761;43.004;-0.066;2022-09-11T00:51:50;1.40;;;1.23;;
55833;SDS011;41761;43.004;-0.066;2022-09-11T00:54:18;1.50;;;1.40;;
55833;SDS011;41761;43.004;-0.066;2022-09-11T00:56:47;1.50;;;1.40;;
55833;SDS011;41761;43.004;-0.066;2022-09-11T00:59:14;1.10;;;1.00;;
55833;SDS011;41761;43.004;-0.066;2022-09-11T01:01:40;1.35;;;1.27;;
55833;SDS011;41761;43.004;-0.066;2022-09-11T01:04:07;1.13;;;1.13;;
55833;SDS011;41761;43.004;-0.066;2022-09-11T01:06:34;1.17;;;1.08;;
55833;SDS011;41761;43.004;-0.066;2022-09-11T01:09:00;1.85;;;1.33;;
55833;SDS011;41761;43.004;-0.066;2022-09-11T01:22:11;1.40;;;1.37;;
55833;SDS011;41761;43.004;-0.066;2022-09-11T01:27:30;2.08;;;1.17;;
55833;SDS011;41761;43.004;-0.066;2022-09-11T01:30:03;1.67;;;1.58;;
55833;SDS011;41761;43.004;-0.066;2022-09-11T01:34:59;2.35;;;1.33;;
55833;SDS011;41761;43.004;-0.066;2022-09-11T01:38:10;1.35;;;1.25;;
55833;SDS011;41761;43.004;-0.066;2022-09-11T01:40:23;1.30;;;1.25;;
55833;SDS011;41761;43.004;-0.066;2022-09-11T01:42:51;1.05;;;1.05;;
55833;SDS011;41761;43.004;-0.066;2022-09-11T01:45:20;1.50;;;1.40;;
55833;SDS011;41761;43.004;-0.066;2022-09-11T01:47:47;1.40;;;1.27;;
55833;SDS011;41761;43.004;-0.066;2022-09-11T01:50:17;1.13;;;1.13;;
55833;SDS011;41761;43.004;-0.066;2022-09-11T01:52:46;1.42;;;1.27;;
55833;SDS011;41761;43.004;-0.066;2022-09-11T01:55:16;1.23;;;1.23;;
55833;SDS011;41761;43.004;-0.066;2022-09-11T01:57:59;1.30;;;1.20;;
55833;SDS011;41761;43.004;-0.066;2022-09-11T02:00:27;1.17;;;1.15;;
55833;SDS011;41761;43.004;-0.066;2022-09-11T02:02:58;2.58;;;1.13;;
55833;SDS011;41761;43.004;-0.066;2022-09-11T02:05:29;1.25;;;1.25;;
55833;SDS011;41761;43.004;-0.066;2022-09-11T02:08:06;1.60;;;1.50;;
55833;SDS011;41761;43.004;-0.066;2022-09-11T02:10:39;1.30;;;1.30;;
55833;SDS011;41761;43.004;-0.066;2022-09-11T02:13:22;5.05;;;1.45;;
55833;SDS011;41761;43.004;-0.066;2022-09-11T02:15:52;1.45;;;1.35;;
55833;SDS011;41761;43.004;-0.066;2022-09-11T02:18:22;4.22;;;1.30;;
55833;SDS011;41761;43.004;-0.066;2022-09-11T02:20:50;1.27;;;1.23;;
55833;SDS011;41761;43.004;-0.066;2022-09-11T02:23:17;3.60;;;1.00;;
55833;SDS011;41761;43.004;-0.066;2022-09-11T02:25:43;1.60;;;1.45;;
55833;SDS011;41761;43.004;-0.066;2022-09-11T02:28:10;3.70;;;1.10;;
55833;SDS011;41761;43.004;-0.066;2022-09-11T02:30:37;1.88;;;1.33;;
55833;SDS011;41761;43.004;-0.066;2022-09-11T02:33:03;1.35;;;1.30;;
55833;SDS011;41761;43.004;-0.066;2022-09-11T02:35:31;1.30;;;1.20;;
55833;SDS011;41761;43.004;-0.066;2022-09-11T02:38:07;1.38;;;1.27;;
55833;SDS011;41761;43.004;-0.066;2022-09-11T02:40:45;1.45;;;1.35;;
55833;SDS011;41761;43.004;-0.066;2022-09-11T02:56:04;4.13;;;1.15;;
55833;SDS011;41761;43.004;-0.066;2022-09-11T02:58:36;2.45;;;1.58;;
55833;SDS011;41761;43.004;-0.066;2022-09-11T03:01:03;2.85;;;1.60;;
55833;SDS011;41761;43.004;-0.066;2022-09-11T03:03:48;1.30;;;1.20;;
55833;SDS011;41761;43.004;-0.066;2022-09-11T03:06:15;4.53;;;1.40;;
55833;SDS011;41761;43.004;-0.066;2022-09-11T03:08:41;0.80;;;0.80;;
55833;SDS011;41761;43.004;-0.066;2022-09-11T03:11:09;1.73;;;1.20;;
55833;SDS011;41761;43.004;-0.066;2022-09-11T03:13:35;1.13;;;1.02;;
55833;SDS011;41761;43.004;-0.066;2022-09-11T03:16:02;1.15;;;1.15;;
55833;SDS011;41761;43.004;-0.066;2022-09-11T03:18:29;1.42;;;1.30;;
55833;SDS011;41761;43.004;-0.066;2022-09-11T03:20:55;1.88;;;1.45;;
55833;SDS011;41761;43.004;-0.066;2022-09-11T03:23:21;1.50;;;1.38;;
55833;SDS011;41761;43.004;-0.066;2022-09-11T03:25:48;1.23;;;1.13;;
55833;SDS011;41761;43.004;-0.066;2022-09-11T03:28:14;1.40;;;1.20;;
55833;SDS011;41761;43.004;-0.066;2022-09-11T03:30:40;1.27;;;1.17;;
55833;SDS011;41761;43.004;-0.066;2022-09-11T03:33:07;2.45;;;1.38;;
55833;SDS011;41761;43.004;-0.066;2022-09-11T03:35:33;1.33;;;1.23;;
55833;SDS011;41761;43.004;-0.066;2022-09-11T03:37:59;1.67;;;1.40;;
55833;SDS011;41761;43.004;-0.066;2022-09-11T03:40:25;1.40;;;1.30;;
55833;SDS011;41761;43.004;-0.066;2022-09-11T03:42:51;1.25;;;1.15;;
55833;SDS011;41761;43.004;-0.066;2022-09-11T03:45:18;1.73;;;1.52;;
55833;SDS011;41761;43.004;-0.066;2022-09-11T03:47:45;1.50;;;1.40;;
55833;SDS011;41761;43.004;-0.066;2022-09-11T03:50:11;2.65;;;1.30;;
55833;SDS011;41761;43.004;-0.066;2022-09-11T03:52:37;4.82;;;1.60;;
55833;SDS011;41761;43.004;-0.066;2022-09-11T03:55:04;1.60;;;1.50;;
55833;SDS011;41761;43.004;-0.066;2022-09-11T03:57:33;1.45;;;1.35;;
55833;SDS011;41761;43.004;-0.066;2022-09-11T04:00:00;1.73;;;1.60;;
55833;SDS011;41761;43.004;-0.066;2022-09-11T04:02:26;1.30;;;1.20;;
55833;SDS011;41761;43.004;-0.066;2022-09-11T04:04:52;1.27;;;1.20;;
55833;SDS011;41761;43.004;-0.066;2022-09-11T04:07:19;5.35;;;1.33;;
55833;SDS011;41761;43.004;-0.066;2022-09-11T04:09:45;4.30;;;1.88;;
55833;SDS011;41761;43.004;-0.066;2022-09-11T04:12:11;1.63;;;1.33;;
55833;SDS011;41761;43.004;-0.066;2022-09-11T04:14:37;1.70;;;1.08;;
55833;SDS011;41761;43.004;-0.066;2022-09-11T04:17:04;2.80;;;1.20;;
55833;SDS011;41761;43.004;-0.066;2022-09-11T04:19:32;1.35;;;1.25;;
55833;SDS011;41761;43.004;-0.066;2022-09-11T04:21:58;2.03;;;1.40;;
55833;SDS011;41761;43.004;-0.066;2022-09-11T04:24:24;2.35;;;1.40;;
55833;SDS011;41761;43.004;-0.066;2022-09-11T04:26:50;1.13;;;1.05;;
55833;SDS011;41761;43.004;-0.066;2022-09-11T04:29:16;1.50;;;1.40;;
55833;SDS011;41761;43.004;-0.066;2022-09-11T04:31:43;1.63;;;1.52;;
55833;SDS011;41761;43.004;-0.066;2022-09-11T04:34:09;1.88;;;1.42;;
55833;SDS011;41761;43.004;-0.066;2022-09-11T04:36:35;2.17;;;1.17;;
55833;SDS011;41761;43.004;-0.066;2022-09-11T04:39:02;0.88;;;0.88;;
55833;SDS011;41761;43.004;-0.066;2022-09-11T04:41:28;1.70;;;1.30;;
55833;SDS011;41761;43.004;-0.066;2022-09-11T04:43:55;1.95;;;1.25;;
55833;SDS011;41761;43.004;-0.066;2022-09-11T04:46:21;1.15;;;1.10;;
55833;SDS011;41761;43.004;-0.066;2022-09-11T04:48:52;1.20;;;1.20;;
55833;SDS011;41761;43.004;-0.066;2022-09-11T04:51:22;2.83;;;1.92;;
55833;SDS011;41761;43.004;-0.066;2022-09-11T04:53:49;1.30;;;1.20;;
55833;SDS011;41761;43.004;-0.066;2022-09-11T04:56:16;1.13;;;1.13;;
55833;SDS011;41761;43.004;-0.066;2022-09-11T04:58:43;1.58;;;1.38;;
55833;SDS011;41761;43.004;-0.066;2022-09-11T05:01:10;4.35;;;1.15;;
55833;SDS011;41761;43.004;-0.066;2022-09-11T05:03:37;1.45;;;1.35;;
55833;SDS011;41761;43.004;-0.066;2022-09-11T05:06:04;1.10;;;1.10;;
55833;SDS011;41761;43.004;-0.066;2022-09-11T05:08:31;1.35;;;1.13;;
55833;SDS011;41761;43.004;-0.066;2022-09-11T05:11:01;4.32;;;1.35;;
55833;SDS011;41761;43.004;-0.066;2022-09-11T05:13:29;3.65;;;1.13;;
55833;SDS011;41761;43.004;-0.066;2022-09-11T05:16:08;2.67;;;1.42;;
55833;SDS011;41761;43.004;-0.066;2022-09-11T05:18:35;2.53;;;1.10;;
55833;SDS011;41761;43.004;-0.066;2022-09-11T05:21:03;1.38;;;1.27;;
55833;SDS011;41761;43.004;-0.066;2022-09-11T05:23:29;1.33;;;1.33;;
55833;SDS011;41761;43.004;-0.066;2022-09-11T05:26:00;7.07;;;1.38;;
55833;SDS011;41761;43.004;-0.066;2022-09-11T05:28:27;7.03;;;1.40;;
55833;SDS011;41761;43.004;-0.066;2022-09-11T05:30:53;11.15;;;1.80;;
55833;SDS011;41761;43.004;-0.066;2022-09-11T05:33:20;7.88;;;1.67;;
55833;SDS011;41761;43.004;-0.066;2022-09-11T05:35:47;13.32;;;2.15;;
55833;SDS011;41761;43.004;-0.066;2022-09-11T05:38:15;6.38;;;1.65;;
55833;SDS011;41761;43.004;-0.066;2022-09-11T05:40:45;5.20;;;1.75;;
55833;SDS011;41761;43.004;-0.066;2022-09-11T05:43:13;8.35;;;1.60;;
55833;SDS011;41761;43.004;-0.066;2022-09-11T05:45:42;3.72;;;1.55;;
55833;SDS011;41761;43.004;-0.066;2022-09-11T05:48:09;5.57;;;1.83;;
55833;SDS011;41761;43.004;-0.066;2022-09-11T05:50:36;10.57;;;1.67;;
55833;SDS011;41761;43.004;-0.066;2022-09-11T05:53:02;14.27;;;1.85;;
55833;SDS011;41761;43.004;-0.066;2022-09-11T05:55:31;5.25;;;2.22;;
55833;SDS011;41761;43.004;-0.066;2022-09-11T05:57:58;11.65;;;1.60;;
55833;SDS011;41761;43.004;-0.066;2022-09-11T06:00:24;5.28;;;2.03;;
55833;SDS011;41761;43.004;-0.066;2022-09-11T06:02:52;13.88;;;1.80;;
55833;SDS011;41761;43.004;-0.066;2022-09-11T06:05:23;4.10;;;1.52;;
55833;SDS011;41761;43.004;-0.066;2022-09-11T06:07:49;1.65;;;1.45;;
55833;SDS011;41761;43.004;-0.066;2022-09-11T06:10:15;1.52;;;1.33;;
55833;SDS011;41761;43.004;-0.066;2022-09-11T06:12:41;2.38;;;1.90;;
55833;SDS011;41761;43.004;-0.066;2022-09-11T06:15:08;3.35;;;1.35;;
55833;SDS011;41761;43.004;-0.066;2022-09-11T06:17:34;1.90;;;1.48;;
55833;SDS011;41761;43.004;-0.066;2022-09-11T06:20:00;12.48;;;1.83;;
55833;SDS011;41761;43.004;-0.066;2022-09-11T06:22:26;21.13;;;2.20;;
55833;SDS011;41761;43.004;-0.066;2022-09-11T06:24:53;14.75;;;1.80;;
55833;SDS011;41761;43.004;-0.066;2022-09-11T06:27:19;15.48;;;1.90;;
55833;SDS011;41761;43.004;-0.066;2022-09-11T06:29:45;1.85;;;1.33;;
55833;SDS011;41761;43.004;-0.066;2022-09-11T06:32:11;9.00;;;1.63;;
55833;SDS011;41761;43.004;-0.066;2022-09-11T06:34:37;3.08;;;1.55;;
55833;SDS011;41761;43.004;-0.066;2022-09-11T06:37:03;5.00;;;1.77;;
55833;SDS011;41761;43.004;-0.066;2022-09-11T06:39:29;9.63;;;1.80;;
55833;SDS011;41761;43.004;-0.066;2022-09-11T06:41:58;2.92;;;1.92;;
55833;SDS011;41761;43.004;-0.066;2022-09-11T06:44:24;7.72;;;2.10;;
55833;SDS011;41761;43.004;-0.066;2022-09-11T06:46:51;7.97;;;1.77;;
55833;SDS011;41761;43.004;-0.066;2022-09-11T06:49:17;2.92;;;1.30;;
55833;SDS011;41761;43.004;-0.066;2022-09-11T06:51:43;4.50;;;1.73;;
55833;SDS011;41761;43.004;-0.066;2022-09-11T06:54:11;5.50;;;1.73;;
55833;SDS011;41761;43.004;-0.066;2022-09-11T06:56:37;6.97;;;1.80;;
55833;SDS011;41761;43.004;-0.066;2022-09-11T06:59:03;2.42;;;1.63;;
55833;SDS011;41761;43.004;-0.066;2022-09-11T07:01:29;1.35;;;1.35;;
55833;SDS011;41761;43.004;-0.066;2022-09-11T07:03:56;1.60;;;1.50;;
55833;SDS011;41761;43.004;-0.066;2022-09-11T07:06:23;10.68;;;1.52;;
55833;SDS011;41761;43.004;-0.066;2022-09-11T07:08:50;1.58;;;1.17;;
55833;SDS011;41761;43.004;-0.066;2022-09-11T07:11:16;3.67;;;1.40;;
55833;SDS011;41761;43.004;-0.066;2022-09-11T07:13:43;2.92;;;1.30;;
55833;SDS011;41761;43.004;-0.066;2022-09-11T07:16:10;1.10;;;1.05;;
55833;SDS011;41761;43.004;-0.066;2022-09-11T07:18:41;1.13;;;1.13;;
55833;SDS011;41761;43.004;-0.066;2022-09-11T07:21:08;3.08;;;1.90;;
55833;SDS011;41761;43.004;-0.066;2022-09-11T07:23:35;2.03;;;1.25;;
55833;SDS011;41761;43.004;-0.066;2022-09-11T07:26:05;1.70;;;1.40;;
55833;SDS011;41761;43.004;-0.066;2022-09-11T07:28:31;3.22;;;1.08;;
55833;SDS011;41761;43.004;-0.066;2022-09-11T07:31:02;1.77;;;1.67;;
55833;SDS011;41761;43.004;-0.066;2022-09-11T07:33:29;1.65;;;1.38;;
55833;SDS011;41761;43.004;-0.066;2022-09-11T07:35:55;2.92;;;1.30;;
55833;SDS011;41761;43.004;-0.066;2022-09-11T07:38:21;1.55;;;1.00;;
55833;SDS011;41761;43.004;-0.066;2022-09-11T07:40:47;1.95;;;1.13;;
55833;SDS011;41761;43.004;-0.066;2022-09-11T07:43:13;1.38;;;1.38;;
55833;SDS011;41761;43.004;-0.066;2022-09-11T07:45:39;1.35;;;1.27;;
55833;SDS011;41761;43.004;-0.066;2022-09-11T07:48:05;1.15;;;1.15;;
55833;SDS011;41761;43.004;-0.066;2022-09-11T07:50:31;1.13;;;1.13;;
55833;SDS011;41761;43.004;-0.066;2022-09-11T07:52:58;0.93;;;0.93;;
55833;SDS011;41761;43.004;-0.066;2022-09-11T07:55:24;1.77;;;1.30;;
55833;SDS011;41761;43.004;-0.066;2022-09-11T07:57:50;1.40;;;1.30;;
55833;SDS011;41761;43.004;-0.066;2022-09-11T08:00:16;1.38;;;1.27;;
55833;SDS011;41761;43.004;-0.066;2022-09-11T08:02:42;1.33;;;1.23;;
55833;SDS011;41761;43.004;-0.066;2022-09-11T08:05:09;2.15;;;1.45;;
55833;SDS011;41761;43.004;-0.066;2022-09-11T08:07:35;1.55;;;1.40;;
55833;SDS011;41761;43.004;-0.066;2022-09-11T08:10:01;1.88;;;1.17;;
55833;SDS011;41761;43.004;-0.066;2022-09-11T08:12:27;1.27;;;1.17;;
55833;SDS011;41761;43.004;-0.066;2022-09-11T08:14:54;1.58;;;1.10;;
55833;SDS011;41761;43.004;-0.066;2022-09-11T08:17:20;1.27;;;1.27;;
55833;SDS011;41761;43.004;-0.066;2022-09-11T08:19:46;1.38;;;1.33;;
55833;SDS011;41761;43.004;-0.066;2022-09-11T08:22:12;1.83;;;1.10;;
55833;SDS011;41761;43.004;-0.066;2022-09-11T08:24:38;1.40;;;1.30;;
55833;SDS011;41761;43.004;-0.066;2022-09-11T08:27:04;1.30;;;1.25;;
55833;SDS011;41761;43.004;-0.066;2022-09-11T08:29:31;1.30;;;1.30;;
55833;SDS011;41761;43.004;-0.066;2022-09-11T08:31:57;1.35;;;1.30;;
55833;SDS011;41761;43.004;-0.066;2022-09-11T08:34:23;0.90;;;0.90;;
55833;SDS011;41761;43.004;-0.066;2022-09-11T08:36:49;2.10;;;1.30;;
55833;SDS011;41761;43.004;-0.066;2022-09-11T08:39:16;1.42;;;1.33;;
55833;SDS011;41761;43.004;-0.066;2022-09-11T08:41:48;0.88;;;0.88;;
55833;SDS011;41761;43.004;-0.066;2022-09-11T08:46:51;1.00;;;1.00;;
55833;SDS011;41761;43.004;-0.066;2022-09-11T08:49:23;1.42;;;1.40;;
55833;SDS011;41761;43.004;-0.066;2022-09-11T08:51:50;1.40;;;1.30;;
55833;SDS011;41761;43.004;-0.066;2022-09-11T08:54:37;1.15;;;1.15;;
55833;SDS011;41761;43.004;-0.066;2022-09-11T08:57:10;1.58;;;1.35;;
55833;SDS011;41761;43.004;-0.066;2022-09-11T09:05:28;1.50;;;1.40;;
55833;SDS011;41761;43.004;-0.066;2022-09-11T09:08:03;1.30;;;1.30;;
55833;SDS011;41761;43.004;-0.066;2022-09-11T09:10:39;1.23;;;1.13;;
55833;SDS011;41761;43.004;-0.066;2022-09-11T09:21:13;1.10;;;1.10;;
55833;SDS011;41761;43.004;-0.066;2022-09-11T09:23:59;1.27;;;1.17;;
55833;SDS011;41761;43.004;-0.066;2022-09-11T09:26:28;1.60;;;1.05;;
55833;SDS011;41761;43.004;-0.066;2022-09-11T09:28:56;1.40;;;1.40;;
55833;SDS011;41761;43.004;-0.066;2022-09-11T09:31:25;1.35;;;1.23;;
55833;SDS011;41761;43.004;-0.066;2022-09-11T09:34:00;1.52;;;1.35;;
55833;SDS011;41761;43.004;-0.066;2022-09-11T09:36:33;1.52;;;1.42;;
55833;SDS011;41761;43.004;-0.066;2022-09-11T09:39:01;1.70;;;1.60;;
55833;SDS011;41761;43.004;-0.066;2022-09-11T09:44:02;1.35;;;1.35;;
55833;SDS011;41761;43.004;-0.066;2022-09-11T09:49:01;2.38;;;1.20;;
55833;SDS011;41761;43.004;-0.066;2022-09-11T09:51:27;1.20;;;1.10;;
55833;SDS011;41761;43.004;-0.066;2022-09-11T09:53:54;1.52;;;1.45;;
55833;SDS011;41761;43.004;-0.066;2022-09-11T09:56:22;1.30;;;1.30;;
55833;SDS011;41761;43.004;-0.066;2022-09-11T09:59:36;1.70;;;1.60;;
55833;SDS011;41761;43.004;-0.066;2022-09-11T10:04:19;1.33;;;1.23;;
55833;SDS011;41761;43.004;-0.066;2022-09-11T10:06:46;1.73;;;1.63;;
55833;SDS011;41761;43.004;-0.066;2022-09-11T10:09:22;3.00;;;2.38;;
55833;SDS011;41761;43.004;-0.066;2022-09-11T10:11:50;1.20;;;1.20;;
55833;SDS011;41761;43.004;-0.066;2022-09-11T10:14:18;1.42;;;1.15;;
55833;SDS011;41761;43.004;-0.066;2022-09-11T10:16:48;1.88;;;1.73;;
55833;SDS011;41761;43.004;-0.066;2022-09-11T10:19:34;1.00;;;1.00;;
55833;SDS011;41761;43.004;-0.066;2022-09-11T10:22:19;1.17;;;1.15;;
55833;SDS011;41761;43.004;-0.066;2022-09-11T10:24:50;1.60;;;1.50;;
55833;SDS011;41761;43.004;-0.066;2022-09-11T10:27:17;1.30;;;1.20;;
55833;SDS011;41761;43.004;-0.066;2022-09-11T10:29:49;1.17;;;1.17;;
55833;SDS011;41761;43.004;-0.066;2022-09-11T10:32:15;1.65;;;1.35;;
55833;SDS011;41761;43.004;-0.066;2022-09-11T10:34:42;1.38;;;1.38;;
55833;SDS011;41761;43.004;-0.066;2022-09-11T10:39:38;1.80;;;1.70;;
55833;SDS011;41761;43.004;-0.066;2022-09-11T10:42:15;1.42;;;1.33;;
55833;SDS011;41761;43.004;-0.066;2022-09-11T10:44:43;1.67;;;1.58;;
55833;SDS011;41761;43.004;-0.066;2022-09-11T10:49:39;1.50;;;1.40;;
55833;SDS011;41761;43.004;-0.066;2022-09-11T10:57:00;2.35;;;1.45;;
55833;SDS011;41761;43.004;-0.066;2022-09-11T11:02:18;1.67;;;1.58;;
55833;SDS011;41761;43.004;-0.066;2022-09-11T11:04:45;2.58;;;1.30;;
55833;SDS011;41761;43.004;-0.066;2022-09-11T11:12:09;1.38;;;1.33;;
55833;SDS011;41761;43.004;-0.066;2022-09-11T11:14:50;1.45;;;1.35;;
55833;SDS011;41761;43.004;-0.066;2022-09-11T11:23:03;1.15;;;1.08;;
55833;SDS011;41761;43.004;-0.066;2022-09-11T11:38:28;1.45;;;1.20;;
55833;SDS011;41761;43.004;-0.066;2022-09-11T11:40:58;1.50;;;1.40;;
55833;SDS011;41761;43.004;-0.066;2022-09-11T11:43:27;1.42;;;1.33;;
55833;SDS011;41761;43.004;-0.066;2022-09-11T11:48:24;1.10;;;1.10;;
55833;SDS011;41761;43.004;-0.066;2022-09-11T11:50:52;1.50;;;1.48;;
55833;SDS011;41761;43.004;-0.066;2022-09-11T12:00:40;0.93;;;0.93;;
55833;SDS011;41761;43.004;-0.066;2022-09-11T12:05:33;1.17;;;1.10;;
55833;SDS011;41761;43.004;-0.066;2022-09-11T12:08:02;1.77;;;1.42;;
55833;SDS011;41761;43.004;-0.066;2022-09-11T12:10:30;1.45;;;1.35;;
55833;SDS011;41761;43.004;-0.066;2022-09-11T12:12:58;1.23;;;1.13;;
55833;SDS011;41761;43.004;-0.066;2022-09-11T12:15:26;1.40;;;1.17;;
55833;SDS011;41761;43.004;-0.066;2022-09-11T12:18:01;1.17;;;1.17;;
55833;SDS011;41761;43.004;-0.066;2022-09-11T12:22:57;1.42;;;1.33;;
55833;SDS011;41761;43.004;-0.066;2022-09-11T12:30:58;1.17;;;1.17;;
55833;SDS011;41761;43.004;-0.066;2022-09-11T12:36:04;1.38;;;1.27;;
55833;SDS011;41761;43.004;-0.066;2022-09-11T12:41:10;1.35;;;1.25;;
55833;SDS011;41761;43.004;-0.066;2022-09-11T12:48:38;1.00;;;1.00;;
55833;SDS011;41761;43.004;-0.066;2022-09-11T12:51:15;1.10;;;1.10;;
55833;SDS011;41761;43.004;-0.066;2022-09-11T12:53:43;2.03;;;1.50;;
55833;SDS011;41761;43.004;-0.066;2022-09-11T12:56:14;1.00;;;1.00;;
55833;SDS011;41761;43.004;-0.066;2022-09-11T12:58:43;1.15;;;1.15;;
55833;SDS011;41761;43.004;-0.066;2022-09-11T13:03:51;2.03;;;1.23;;
55833;SDS011;41761;43.004;-0.066;2022-09-11T13:06:20;1.08;;;1.08;;
55833;SDS011;41761;43.004;-0.066;2022-09-11T13:08:54;1.33;;;1.20;;
55833;SDS011;41761;43.004;-0.066;2022-09-11T13:14:38;2.05;;;1.20;;
55833;SDS011;41761;43.004;-0.066;2022-09-11T13:16:51;1.00;;;1.00;;
55833;SDS011;41761;43.004;-0.066;2022-09-11T13:19:17;1.20;;;1.10;;
55833;SDS011;41761;43.004;-0.066;2022-09-11T13:21:45;3.55;;;1.27;;
55833;SDS011;41761;43.004;-0.066;2022-09-11T13:24:46;1.00;;;1.00;;
55833;SDS011;41761;43.004;-0.066;2022-09-11T13:27:14;1.43;;;1.30;;
55833;SDS011;41761;43.004;-0.066;2022-09-11T13:29:41;1.45;;;1.25;;
55833;SDS011;41761;43.004;-0.066;2022-09-11T13:32:08;2.15;;;1.30;;
55833;SDS011;41761;43.004;-0.066;2022-09-11T13:34:35;2.38;;;1.10;;
55833;SDS011;41761;43.004;-0.066;2022-09-11T13:37:07;0.95;;;0.95;;
55833;SDS011;41761;43.004;-0.066;2022-09-11T13:42:00;1.00;;;1.00;;
55833;SDS011;41761;43.004;-0.066;2022-09-11T13:44:30;2.17;;;1.48;;
55833;SDS011;41761;43.004;-0.066;2022-09-11T13:47:00;1.10;;;1.10;;
55833;SDS011;41761;43.004;-0.066;2022-09-11T13:51:52;1.10;;;1.10;;
55833;SDS011;41761;43.004;-0.066;2022-09-11T13:54:25;1.33;;;1.27;;
55833;SDS011;41761;43.004;-0.066;2022-09-11T13:59:25;1.08;;;0.98;;
55833;SDS011;41761;43.004;-0.066;2022-09-11T14:01:54;1.05;;;0.98;;
55833;SDS011;41761;43.004;-0.066;2022-09-11T14:04:25;1.05;;;1.05;;
55833;SDS011;41761;43.004;-0.066;2022-09-11T14:06:51;2.90;;;0.90;;
55833;SDS011;41761;43.004;-0.066;2022-09-11T14:09:18;0.98;;;0.90;;
55833;SDS011;41761;43.004;-0.066;2022-09-11T14:11:45;1.42;;;1.33;;
55833;SDS011;41761;43.004;-0.066;2022-09-11T14:14:12;1.58;;;1.48;;
55833;SDS011;41761;43.004;-0.066;2022-09-11T14:16:45;1.17;;;1.17;;
55833;SDS011;41761;43.004;-0.066;2022-09-11T14:21:39;1.42;;;1.00;;
55833;SDS011;41761;43.004;-0.066;2022-09-11T14:26:56;0.90;;;0.90;;
55833;SDS011;41761;43.004;-0.066;2022-09-11T14:29:27;1.65;;;1.05;;
55833;SDS011;41761;43.004;-0.066;2022-09-11T14:32:10;1.08;;;1.08;;
55833;SDS011;41761;43.004;-0.066;2022-09-11T14:34:40;1.55;;;1.15;;
55833;SDS011;41761;43.004;-0.066;2022-09-11T14:37:10;1.35;;;1.27;;
55833;SDS011;41761;43.004;-0.066;2022-09-11T14:42:11;1.15;;;1.10;;
55833;SDS011;41761;43.004;-0.066;2022-09-11T14:44:39;1.23;;;1.23;;
55833;SDS011;41761;43.004;-0.066;2022-09-11T14:47:08;1.17;;;1.17;;
55833;SDS011;41761;43.004;-0.066;2022-09-11T14:49:35;2.58;;;1.27;;
55833;SDS011;41761;43.004;-0.066;2022-09-11T14:52:01;1.10;;;1.10;;
55833;SDS011;41761;43.004;-0.066;2022-09-11T14:54:28;1.40;;;1.30;;
55833;SDS011;41761;43.004;-0.066;2022-09-11T14:56:58;0.90;;;0.90;;
55833;SDS011;41761;43.004;-0.066;2022-09-11T14:59:24;1.30;;;1.20;;
55833;SDS011;41761;43.004;-0.066;2022-09-11T15:01:53;1.20;;;1.20;;
55833;SDS011;41761;43.004;-0.066;2022-09-11T15:04:19;1.00;;;1.00;;
55833;SDS011;41761;43.004;-0.066;2022-09-11T15:06:50;0.93;;;0.93;;
55833;SDS011;41761;43.004;-0.066;2022-09-11T15:09:17;1.10;;;1.10;;
55833;SDS011;41761;43.004;-0.066;2022-09-11T15:11:43;1.60;;;0.88;;
55833;SDS011;41761;43.004;-0.066;2022-09-11T15:14:09;1.30;;;1.20;;
55833;SDS011;41761;43.004;-0.066;2022-09-11T15:16:38;2.88;;;1.42;;
55833;SDS011;41761;43.004;-0.066;2022-09-11T15:19:04;2.42;;;1.63;;
55833;SDS011;41761;43.004;-0.066;2022-09-11T15:21:30;1.13;;;1.10;;
55833;SDS011;41761;43.004;-0.066;2022-09-11T15:23:56;1.38;;;1.27;;
55833;SDS011;41761;43.004;-0.066;2022-09-11T15:26:22;0.90;;;0.90;;
55833;SDS011;41761;43.004;-0.066;2022-09-11T15:28:51;1.30;;;1.20;;
55833;SDS011;41761;43.004;-0.066;2022-09-11T15:31:17;1.08;;;1.08;;
55833;SDS011;41761;43.004;-0.066;2022-09-11T15:33:44;1.05;;;1.05;;
55833;SDS011;41761;43.004;-0.066;2022-09-11T15:36:14;0.93;;;0.93;;
55833;SDS011;41761;43.004;-0.066;2022-09-11T15:38:40;1.17;;;1.08;;
55833;SDS011;41761;43.004;-0.066;2022-09-11T15:41:06;2.15;;;1.15;;
55833;SDS011;41761;43.004;-0.066;2022-09-11T15:43:37;1.10;;;1.00;;
55833;SDS011;41761;43.004;-0.066;2022-09-11T15:46:07;1.30;;;1.20;;
55833;SDS011;41761;43.004;-0.066;2022-09-11T15:48:35;1.98;;;1.08;;
55833;SDS011;41761;43.004;-0.066;2022-09-11T15:51:02;1.00;;;1.00;;
55833;SDS011;41761;43.004;-0.066;2022-09-11T15:53:28;1.67;;;1.05;;
55833;SDS011;41761;43.004;-0.066;2022-09-11T15:56:04;1.23;;;1.17;;
55833;SDS011;41761;43.004;-0.066;2022-09-11T15:58:32;1.13;;;1.13;;
55833;SDS011;41761;43.004;-0.066;2022-09-11T16:00:58;0.90;;;0.90;;
55833;SDS011;41761;43.004;-0.066;2022-09-11T16:03:25;2.22;;;1.00;;
55833;SDS011;41761;43.004;-0.066;2022-09-11T16:05:51;2.05;;;1.10;;
55833;SDS011;41761;43.004;-0.066;2022-09-11T16:08:18;1.13;;;1.13;;
55833;SDS011;41761;43.004;-0.066;2022-09-11T16:10:46;1.20;;;0.98;;
55833;SDS011;41761;43.004;-0.066;2022-09-11T16:13:12;0.95;;;0.90;;
55833;SDS011;41761;43.004;-0.066;2022-09-11T16:15:38;1.63;;;1.42;;
55833;SDS011;41761;43.004;-0.066;2022-09-11T16:18:04;0.98;;;0.98;;
55833;SDS011;41761;43.004;-0.066;2022-09-11T16:20:31;1.10;;;1.10;;
55833;SDS011;41761;43.004;-0.066;2022-09-11T16:22:57;2.03;;;1.40;;
55833;SDS011;41761;43.004;-0.066;2022-09-11T16:25:23;3.05;;;1.30;;
55833;SDS011;41761;43.004;-0.066;2022-09-11T16:27:55;1.40;;;1.30;;
55833;SDS011;41761;43.004;-0.066;2022-09-11T16:30:21;0.93;;;0.93;;
55833;SDS011;41761;43.004;-0.066;2022-09-11T16:32:47;1.40;;;1.30;;
55833;SDS011;41761;43.004;-0.066;2022-09-11T16:35:14;3.08;;;1.40;;
55833;SDS011;41761;43.004;-0.066;2022-09-11T16:37:44;1.48;;;1.45;;
55833;SDS011;41761;43.004;-0.066;2022-09-11T16:40:10;1.33;;;1.23;;
55833;SDS011;41761;43.004;-0.066;2022-09-11T16:42:36;1.17;;;1.15;;
55833;SDS011;41761;43.004;-0.066;2022-09-11T16:45:02;0.98;;;0.98;;
55833;SDS011;41761;43.004;-0.066;2022-09-11T16:47:28;1.08;;;1.08;;
55833;SDS011;41761;43.004;-0.066;2022-09-11T16:49:54;1.65;;;1.25;;
55833;SDS011;41761;43.004;-0.066;2022-09-11T16:52:20;1.20;;;1.10;;
55833;SDS011;41761;43.004;-0.066;2022-09-11T16:54:46;0.80;;;0.80;;
55833;SDS011;41761;43.004;-0.066;2022-09-11T16:57:13;1.00;;;1.00;;
55833;SDS011;41761;43.004;-0.066;2022-09-11T16:59:39;1.40;;;1.15;;
55833;SDS011;41761;43.004;-0.066;2022-09-11T17:02:05;1.20;;;1.20;;
55833;SDS011;41761;43.004;-0.066;2022-09-11T17:04:31;1.20;;;1.10;;